createdAt,value
2023-04-21T00:12:02.926Z,98255.13
2023-04-21T01:13:01.358Z,98226.53
2023-04-21T01:33:24.919Z,98236.34
2023-04-21T01:53:28.363Z,98232.72
2023-04-21T02:13:32.952Z,98226.03
2023-04-21T02:53:51.207Z,98235.16
2023-04-21T03:13:54.131Z,98239.56
2023-04-21T03:33:58.666Z,98224.78
2023-04-21T03:54:01.870Z,98230.25
2023-04-21T04:14:04.696Z,98252.94
2023-04-21T04:34:08.339Z,98260.59
2023-04-21T04:54:11.014Z,98278.75
2023-04-21T05:14:13.715Z,98283.28
2023-04-21T05:34:16.363Z,98290.66
2023-04-21T05:54:19.719Z,98277.87
2023-04-21T06:14:22.867Z,98280.63
2023-04-21T06:34:25.540Z,98267.66
2023-04-21T06:54:28.405Z,98264.91
2023-04-21T07:14:31.073Z,98261.09
2023-04-21T07:34:33.705Z,98256.69
2023-04-21T07:54:36.358Z,98252.88
2023-04-21T08:14:39.017Z,98235.97
2023-04-21T08:34:41.809Z,98232.91
2023-04-21T08:54:44.443Z,98232.44
2023-04-21T09:14:47.193Z,98223.97
2023-04-21T09:34:49.869Z,98210.81
2023-04-21T09:54:52.638Z,98214.66
2023-04-21T10:14:55.269Z,98198.06
2023-04-21T10:34:57.926Z,98200.53
2023-04-21T10:55:00.625Z,98191.41
2023-04-21T11:15:03.596Z,98176.91
2023-04-21T11:35:06.396Z,98158.63
2023-04-21T11:55:09.535Z,98158.16
2023-04-21T12:15:12.304Z,98140.03
2023-04-21T12:35:15.288Z,98114.31
2023-04-21T12:55:17.930Z,98096.31
2023-04-21T13:15:20.763Z,98080.69
2023-04-21T13:35:23.406Z,98073.84
2023-04-21T13:55:26.058Z,98049.56
2023-04-21T14:15:29.212Z,98029.41
2023-04-21T14:35:31.936Z,98014.88
2023-04-21T14:55:34.631Z,98011.06
2023-04-21T15:15:37.275Z,97990.78
2023-04-21T15:35:39.926Z,97985.38
2023-04-21T15:55:42.546Z,97977.19
2023-04-21T16:15:45.256Z,97968.97
2023-04-21T16:35:48.548Z,97953.06
2023-04-21T16:55:51.397Z,97948.84
2023-04-21T17:15:54.020Z,97946.72
2023-04-21T17:36:03.313Z,97947.75
2023-04-21T17:56:06.407Z,97943.16
2023-04-21T18:16:09.148Z,97964.25
2023-04-21T18:36:11.898Z,97966.13
2023-04-21T18:56:14.643Z,97979.94
2023-04-21T19:16:18.180Z,97983.50
2023-04-21T19:36:21.078Z,97973.03
2023-04-21T19:56:23.785Z,97974.97
2023-04-21T21:17:55.836Z,97996.25
2023-04-21T21:58:21.998Z,97986.88
